sensor_id;sensor_type;location;lat;lon;timestamp;P1;durP1;ratioP1;P2;durP2;ratioP2
60722;SDS011;46574;52.818;6.516;2024-01-30T00:01:25;22.77;;;17.35;;
60722;SDS011;46574;52.818;6.516;2024-01-30T00:03:51;22.10;;;19.77;;
60722;SDS011;46574;52.818;6.516;2024-01-30T00:06:19;23.25;;;19.88;;
60722;SDS011;46574;52.818;6.516;2024-01-30T00:08:46;22.05;;;18.42;;
60722;SDS011;46574;52.818;6.516;2024-01-30T00:11:14;23.40;;;19.05;;
60722;SDS011;46574;52.818;6.516;2024-01-30T00:13:40;22.10;;;19.08;;
60722;SDS011;46574;52.818;6.516;2024-01-30T00:16:06;21.20;;;18.58;;
60722;SDS011;46574;52.818;6.516;2024-01-30T00:18:33;21.95;;;18.52;;
60722;SDS011;46574;52.818;6.516;2024-01-30T00:20:59;22.80;;;17.45;;
60722;SDS011;46574;52.818;6.516;2024-01-30T00:23:24;21.17;;;18.20;;
60722;SDS011;46574;52.818;6.516;2024-01-30T00:25:50;21.05;;;17.83;;
60722;SDS011;46574;52.818;6.516;2024-01-30T00:28:16;19.65;;;17.27;;
60722;SDS011;46574;52.818;6.516;2024-01-30T00:30:42;19.42;;;17.00;;
60722;SDS011;46574;52.818;6.516;2024-01-30T00:33:08;20.52;;;17.02;;
60722;SDS011;46574;52.818;6.516;2024-01-30T00:35:34;18.45;;;16.25;;
60722;SDS011;46574;52.818;6.516;2024-01-30T00:38:00;19.15;;;15.48;;
60722;SDS011;46574;52.818;6.516;2024-01-30T00:40:26;20.55;;;18.35;;
60722;SDS011;46574;52.818;6.516;2024-01-30T00:42:51;18.00;;;16.02;;
60722;SDS011;46574;52.818;6.516;2024-01-30T00:45:17;22.40;;;19.92;;
60722;SDS011;46574;52.818;6.516;2024-01-30T00:47:43;19.70;;;17.70;;
60722;SDS011;46574;52.818;6.516;2024-01-30T00:50:11;22.33;;;18.75;;
60722;SDS011;46574;52.818;6.516;2024-01-30T00:52:37;18.38;;;16.48;;
60722;SDS011;46574;52.818;6.516;2024-01-30T00:55:04;20.73;;;18.38;;
60722;SDS011;46574;52.818;6.516;2024-01-30T00:57:30;19.27;;;17.05;;
60722;SDS011;46574;52.818;6.516;2024-01-30T00:59:56;18.73;;;16.77;;
60722;SDS011;46574;52.818;6.516;2024-01-30T01:02:22;22.73;;;19.58;;
60722;SDS011;46574;52.818;6.516;2024-01-30T01:04:48;20.45;;;18.27;;
60722;SDS011;46574;52.818;6.516;2024-01-30T01:07:13;20.48;;;18.38;;
60722;SDS011;46574;52.818;6.516;2024-01-30T01:09:39;21.52;;;17.98;;
60722;SDS011;46574;52.818;6.516;2024-01-30T01:12:05;20.15;;;17.38;;
60722;SDS011;46574;52.818;6.516;2024-01-30T01:14:31;21.42;;;17.80;;
60722;SDS011;46574;52.818;6.516;2024-01-30T01:16:56;21.65;;;18.25;;
60722;SDS011;46574;52.818;6.516;2024-01-30T01:19:22;22.63;;;19.30;;
60722;SDS011;46574;52.818;6.516;2024-01-30T01:21:48;21.67;;;18.23;;
60722;SDS011;46574;52.818;6.516;2024-01-30T01:24:13;20.17;;;17.73;;
60722;SDS011;46574;52.818;6.516;2024-01-30T01:26:39;21.25;;;17.60;;
60722;SDS011;46574;52.818;6.516;2024-01-30T01:29:06;23.38;;;18.95;;
60722;SDS011;46574;52.818;6.516;2024-01-30T01:31:38;22.88;;;19.50;;
60722;SDS011;46574;52.818;6.516;2024-01-30T01:34:09;19.02;;;17.00;;
60722;SDS011;46574;52.818;6.516;2024-01-30T01:36:36;21.65;;;18.95;;
60722;SDS011;46574;52.818;6.516;2024-01-30T01:39:01;19.40;;;17.00;;
60722;SDS011;46574;52.818;6.516;2024-01-30T01:41:31;19.15;;;16.80;;
60722;SDS011;46574;52.818;6.516;2024-01-30T01:43:58;19.90;;;17.80;;
60722;SDS011;46574;52.818;6.516;2024-01-30T01:46:26;19.83;;;17.70;;
60722;SDS011;46574;52.818;6.516;2024-01-30T01:48:53;21.33;;;18.63;;
60722;SDS011;46574;52.818;6.516;2024-01-30T01:51:19;19.90;;;17.83;;
60722;SDS011;46574;52.818;6.516;2024-01-30T01:53:45;20.77;;;17.85;;
60722;SDS011;46574;52.818;6.516;2024-01-30T01:56:11;19.52;;;16.63;;
60722;SDS011;46574;52.818;6.516;2024-01-30T01:58:37;21.33;;;18.52;;
60722;SDS011;46574;52.818;6.516;2024-01-30T02:01:03;20.88;;;17.15;;
60722;SDS011;46574;52.818;6.516;2024-01-30T02:03:30;22.00;;;18.73;;
60722;SDS011;46574;52.818;6.516;2024-01-30T02:05:56;19.40;;;17.33;;
60722;SDS011;46574;52.818;6.516;2024-01-30T02:08:22;20.63;;;18.08;;
60722;SDS011;46574;52.818;6.516;2024-01-30T02:10:49;19.33;;;17.25;;
60722;SDS011;46574;52.818;6.516;2024-01-30T02:13:15;23.73;;;19.42;;
60722;SDS011;46574;52.818;6.516;2024-01-30T02:15:40;20.75;;;18.02;;
60722;SDS011;46574;52.818;6.516;2024-01-30T02:18:06;20.70;;;17.83;;
60722;SDS011;46574;52.818;6.516;2024-01-30T02:20:31;23.38;;;19.35;;
60722;SDS011;46574;52.818;6.516;2024-01-30T02:23:00;20.67;;;17.33;;
60722;SDS011;46574;52.818;6.516;2024-01-30T02:25:34;22.92;;;19.02;;
60722;SDS011;46574;52.818;6.516;2024-01-30T02:28:02;20.33;;;18.20;;
60722;SDS011;46574;52.818;6.516;2024-01-30T02:30:27;20.95;;;17.52;;
60722;SDS011;46574;52.818;6.516;2024-01-30T02:32:53;20.63;;;17.10;;
60722;SDS011;46574;52.818;6.516;2024-01-30T02:35:19;22.77;;;18.80;;
60722;SDS011;46574;52.818;6.516;2024-01-30T02:37:44;23.00;;;19.48;;
60722;SDS011;46574;52.818;6.516;2024-01-30T02:40:10;21.77;;;18.20;;
60722;SDS011;46574;52.818;6.516;2024-01-30T02:42:36;24.77;;;19.08;;
60722;SDS011;46574;52.818;6.516;2024-01-30T02:45:01;20.55;;;18.10;;
60722;SDS011;46574;52.818;6.516;2024-01-30T02:47:27;20.65;;;18.13;;
60722;SDS011;46574;52.818;6.516;2024-01-30T02:49:53;21.40;;;18.23;;
60722;SDS011;46574;52.818;6.516;2024-01-30T02:52:18;20.35;;;18.17;;
60722;SDS011;46574;52.818;6.516;2024-01-30T02:54:44;20.95;;;18.42;;
60722;SDS011;46574;52.818;6.516;2024-01-30T02:57:10;20.55;;;18.35;;
60722;SDS011;46574;52.818;6.516;2024-01-30T02:59:35;21.27;;;16.88;;
60722;SDS011;46574;52.818;6.516;2024-01-30T03:02:01;22.25;;;19.02;;
60722;SDS011;46574;52.818;6.516;2024-01-30T03:04:27;21.95;;;18.75;;
60722;SDS011;46574;52.818;6.516;2024-01-30T03:06:55;22.90;;;18.67;;
60722;SDS011;46574;52.818;6.516;2024-01-30T03:09:20;21.33;;;18.83;;
60722;SDS011;46574;52.818;6.516;2024-01-30T03:11:46;23.52;;;19.23;;
60722;SDS011;46574;52.818;6.516;2024-01-30T03:14:11;21.08;;;17.88;;
60722;SDS011;46574;52.818;6.516;2024-01-30T03:16:37;24.55;;;19.23;;
60722;SDS011;46574;52.818;6.516;2024-01-30T03:19:03;18.48;;;16.20;;
60722;SDS011;46574;52.818;6.516;2024-01-30T03:21:30;19.40;;;16.95;;
60722;SDS011;46574;52.818;6.516;2024-01-30T03:23:56;19.95;;;17.42;;
60722;SDS011;46574;52.818;6.516;2024-01-30T03:26:21;19.95;;;17.67;;
60722;SDS011;46574;52.818;6.516;2024-01-30T03:28:47;19.40;;;17.30;;
60722;SDS011;46574;52.818;6.516;2024-01-30T03:31:14;22.05;;;18.15;;
60722;SDS011;46574;52.818;6.516;2024-01-30T03:33:40;20.00;;;16.92;;
60722;SDS011;46574;52.818;6.516;2024-01-30T03:36:06;22.38;;;18.17;;
60722;SDS011;46574;52.818;6.516;2024-01-30T03:38:32;20.10;;;17.40;;
60722;SDS011;46574;52.818;6.516;2024-01-30T03:40:58;20.23;;;18.10;;
60722;SDS011;46574;52.818;6.516;2024-01-30T03:43:24;20.98;;;16.98;;
60722;SDS011;46574;52.818;6.516;2024-01-30T03:45:50;20.63;;;18.55;;
60722;SDS011;46574;52.818;6.516;2024-01-30T03:48:16;20.15;;;16.80;;
60722;SDS011;46574;52.818;6.516;2024-01-30T03:50:41;22.63;;;18.17;;
60722;SDS011;46574;52.818;6.516;2024-01-30T03:53:07;21.63;;;18.08;;
60722;SDS011;46574;52.818;6.516;2024-01-30T03:55:33;19.48;;;16.65;;
60722;SDS011;46574;52.818;6.516;2024-01-30T03:57:58;21.45;;;18.30;;
60722;SDS011;46574;52.818;6.516;2024-01-30T04:00:24;22.70;;;17.27;;
60722;SDS011;46574;52.818;6.516;2024-01-30T04:02:49;19.00;;;16.75;;
60722;SDS011;46574;52.818;6.516;2024-01-30T04:05:16;19.42;;;16.50;;
60722;SDS011;46574;52.818;6.516;2024-01-30T04:07:42;20.10;;;17.33;;
60722;SDS011;46574;52.818;6.516;2024-01-30T04:10:08;20.75;;;17.70;;
60722;SDS011;46574;52.818;6.516;2024-01-30T04:12:35;21.25;;;17.25;;
60722;SDS011;46574;52.818;6.516;2024-01-30T04:15:01;20.20;;;17.63;;
60722;SDS011;46574;52.818;6.516;2024-01-30T04:17:27;19.40;;;16.80;;
60722;SDS011;46574;52.818;6.516;2024-01-30T04:19:54;21.77;;;17.60;;
60722;SDS011;46574;52.818;6.516;2024-01-30T04:22:20;18.80;;;16.77;;
60722;SDS011;46574;52.818;6.516;2024-01-30T04:24:45;19.75;;;17.02;;
60722;SDS011;46574;52.818;6.516;2024-01-30T04:27:11;18.38;;;15.95;;
60722;SDS011;46574;52.818;6.516;2024-01-30T04:29:37;19.58;;;16.42;;
60722;SDS011;46574;52.818;6.516;2024-01-30T04:32:03;18.92;;;16.38;;
60722;SDS011;46574;52.818;6.516;2024-01-30T04:34:29;18.15;;;15.40;;
60722;SDS011;46574;52.818;6.516;2024-01-30T04:36:55;20.50;;;17.30;;
60722;SDS011;46574;52.818;6.516;2024-01-30T04:39:21;20.48;;;16.00;;
60722;SDS011;46574;52.818;6.516;2024-01-30T04:41:47;19.42;;;17.15;;
60722;SDS011;46574;52.818;6.516;2024-01-30T04:44:13;18.95;;;15.80;;
60722;SDS011;46574;52.818;6.516;2024-01-30T04:46:39;19.55;;;16.55;;
60722;SDS011;46574;52.818;6.516;2024-01-30T04:49:05;20.13;;;16.85;;
60722;SDS011;46574;52.818;6.516;2024-01-30T04:51:32;18.52;;;15.85;;
60722;SDS011;46574;52.818;6.516;2024-01-30T04:53:58;19.23;;;15.88;;
60722;SDS011;46574;52.818;6.516;2024-01-30T04:56:24;18.80;;;15.48;;
60722;SDS011;46574;52.818;6.516;2024-01-30T04:58:50;18.95;;;15.20;;
60722;SDS011;46574;52.818;6.516;2024-01-30T05:01:16;18.60;;;16.60;;
60722;SDS011;46574;52.818;6.516;2024-01-30T05:03:42;16.60;;;14.20;;
60722;SDS011;46574;52.818;6.516;2024-01-30T05:06:07;17.23;;;15.48;;
60722;SDS011;46574;52.818;6.516;2024-01-30T05:08:33;18.70;;;15.77;;
60722;SDS011;46574;52.818;6.516;2024-01-30T05:11:01;19.92;;;16.42;;
60722;SDS011;46574;52.818;6.516;2024-01-30T05:13:29;18.42;;;15.98;;
60722;SDS011;46574;52.818;6.516;2024-01-30T05:15:55;20.42;;;16.17;;
60722;SDS011;46574;52.818;6.516;2024-01-30T05:18:21;18.35;;;15.40;;
60722;SDS011;46574;52.818;6.516;2024-01-30T05:20:47;17.90;;;16.00;;
60722;SDS011;46574;52.818;6.516;2024-01-30T05:23:12;19.33;;;16.30;;
60722;SDS011;46574;52.818;6.516;2024-01-30T05:25:38;19.05;;;16.35;;
60722;SDS011;46574;52.818;6.516;2024-01-30T05:28:04;19.88;;;16.30;;
60722;SDS011;46574;52.818;6.516;2024-01-30T05:30:30;20.92;;;15.65;;
60722;SDS011;46574;52.818;6.516;2024-01-30T05:32:55;18.83;;;15.20;;
60722;SDS011;46574;52.818;6.516;2024-01-30T05:35:22;17.50;;;15.60;;
60722;SDS011;46574;52.818;6.516;2024-01-30T05:37:48;17.95;;;15.13;;
60722;SDS011;46574;52.818;6.516;2024-01-30T05:40:15;20.02;;;14.63;;
60722;SDS011;46574;52.818;6.516;2024-01-30T05:42:40;19.33;;;15.75;;
60722;SDS011;46574;52.818;6.516;2024-01-30T05:45:06;18.60;;;14.93;;
60722;SDS011;46574;52.818;6.516;2024-01-30T05:47:33;20.23;;;15.90;;
60722;SDS011;46574;52.818;6.516;2024-01-30T05:49:59;17.20;;;15.40;;
60722;SDS011;46574;52.818;6.516;2024-01-30T05:52:25;18.10;;;14.93;;
60722;SDS011;46574;52.818;6.516;2024-01-30T05:54:50;19.90;;;14.73;;
60722;SDS011;46574;52.818;6.516;2024-01-30T05:57:16;18.90;;;15.55;;
60722;SDS011;46574;52.818;6.516;2024-01-30T05:59:42;17.20;;;14.20;;
60722;SDS011;46574;52.818;6.516;2024-01-30T06:02:10;18.25;;;15.00;;
60722;SDS011;46574;52.818;6.516;2024-01-30T06:04:36;19.08;;;14.95;;
60722;SDS011;46574;52.818;6.516;2024-01-30T06:07:02;19.75;;;16.20;;
60722;SDS011;46574;52.818;6.516;2024-01-30T06:09:28;17.92;;;15.40;;
60722;SDS011;46574;52.818;6.516;2024-01-30T06:11:54;17.48;;;14.90;;
60722;SDS011;46574;52.818;6.516;2024-01-30T06:14:20;17.00;;;14.73;;
60722;SDS011;46574;52.818;6.516;2024-01-30T06:16:45;19.17;;;15.60;;
60722;SDS011;46574;52.818;6.516;2024-01-30T06:19:11;17.55;;;14.82;;
60722;SDS011;46574;52.818;6.516;2024-01-30T06:21:37;17.60;;;15.18;;
60722;SDS011;46574;52.818;6.516;2024-01-30T06:24:03;15.63;;;13.95;;
60722;SDS011;46574;52.818;6.516;2024-01-30T06:26:29;16.08;;;14.38;;
60722;SDS011;46574;52.818;6.516;2024-01-30T06:28:55;21.17;;;15.38;;
60722;SDS011;46574;52.818;6.516;2024-01-30T06:31:21;19.50;;;15.02;;
60722;SDS011;46574;52.818;6.516;2024-01-30T06:33:47;17.58;;;15.70;;
60722;SDS011;46574;52.818;6.516;2024-01-30T06:36:13;16.80;;;14.25;;
60722;SDS011;46574;52.818;6.516;2024-01-30T06:38:39;18.67;;;14.65;;
60722;SDS011;46574;52.818;6.516;2024-01-30T06:41:06;17.30;;;14.63;;
60722;SDS011;46574;52.818;6.516;2024-01-30T06:43:31;16.85;;;15.15;;
60722;SDS011;46574;52.818;6.516;2024-01-30T06:45:57;18.65;;;15.02;;
60722;SDS011;46574;52.818;6.516;2024-01-30T06:48:23;16.15;;;14.45;;
60722;SDS011;46574;52.818;6.516;2024-01-30T06:50:48;18.10;;;14.55;;
60722;SDS011;46574;52.818;6.516;2024-01-30T06:53:14;16.85;;;14.13;;
60722;SDS011;46574;52.818;6.516;2024-01-30T06:55:40;17.08;;;14.57;;
60722;SDS011;46574;52.818;6.516;2024-01-30T06:58:05;17.65;;;14.25;;
60722;SDS011;46574;52.818;6.516;2024-01-30T07:00:31;16.95;;;15.05;;
60722;SDS011;46574;52.818;6.516;2024-01-30T07:02:57;18.17;;;14.82;;
60722;SDS011;46574;52.818;6.516;2024-01-30T07:05:23;20.88;;;14.65;;
60722;SDS011;46574;52.818;6.516;2024-01-30T07:07:48;16.17;;;14.43;;
60722;SDS011;46574;52.818;6.516;2024-01-30T07:10:14;16.77;;;14.18;;
60722;SDS011;46574;52.818;6.516;2024-01-30T07:12:39;17.85;;;15.23;;
60722;SDS011;46574;52.818;6.516;2024-01-30T07:15:05;19.85;;;14.68;;
60722;SDS011;46574;52.818;6.516;2024-01-30T07:17:34;16.77;;;14.17;;
60722;SDS011;46574;52.818;6.516;2024-01-30T07:20:00;17.55;;;14.88;;
60722;SDS011;46574;52.818;6.516;2024-01-30T07:22:28;17.15;;;14.40;;
60722;SDS011;46574;52.818;6.516;2024-01-30T07:24:55;16.45;;;14.48;;
60722;SDS011;46574;52.818;6.516;2024-01-30T07:27:20;17.25;;;15.43;;
60722;SDS011;46574;52.818;6.516;2024-01-30T07:29:46;16.90;;;14.65;;
60722;SDS011;46574;52.818;6.516;2024-01-30T07:32:12;17.33;;;14.38;;
60722;SDS011;46574;52.818;6.516;2024-01-30T07:34:38;18.52;;;15.10;;
60722;SDS011;46574;52.818;6.516;2024-01-30T07:37:03;16.42;;;13.93;;
60722;SDS011;46574;52.818;6.516;2024-01-30T07:39:29;16.98;;;14.77;;
60722;SDS011;46574;52.818;6.516;2024-01-30T07:41:55;17.25;;;15.30;;
60722;SDS011;46574;52.818;6.516;2024-01-30T07:44:20;16.88;;;14.88;;
60722;SDS011;46574;52.818;6.516;2024-01-30T07:46:47;16.73;;;14.95;;
60722;SDS011;46574;52.818;6.516;2024-01-30T07:49:12;18.10;;;15.05;;
60722;SDS011;46574;52.818;6.516;2024-01-30T07:51:39;16.90;;;14.55;;
60722;SDS011;46574;52.818;6.516;2024-01-30T07:54:14;18.30;;;14.98;;
60722;SDS011;46574;52.818;6.516;2024-01-30T07:56:40;16.15;;;14.45;;
60722;SDS011;46574;52.818;6.516;2024-01-30T07:59:09;16.98;;;13.30;;
60722;SDS011;46574;52.818;6.516;2024-01-30T08:01:35;18.45;;;14.02;;
60722;SDS011;46574;52.818;6.516;2024-01-30T08:04:01;16.52;;;13.90;;
60722;SDS011;46574;52.818;6.516;2024-01-30T08:06:26;16.30;;;14.55;;
60722;SDS011;46574;52.818;6.516;2024-01-30T08:08:52;16.90;;;14.07;;
60722;SDS011;46574;52.818;6.516;2024-01-30T08:11:19;20.92;;;14.07;;
60722;SDS011;46574;52.818;6.516;2024-01-30T08:13:50;16.33;;;13.93;;
60722;SDS011;46574;52.818;6.516;2024-01-30T08:16:16;16.05;;;14.32;;
60722;SDS011;46574;52.818;6.516;2024-01-30T08:18:42;15.20;;;13.57;;
60722;SDS011;46574;52.818;6.516;2024-01-30T08:21:07;16.65;;;13.40;;
60722;SDS011;46574;52.818;6.516;2024-01-30T08:23:34;17.15;;;13.48;;
60722;SDS011;46574;52.818;6.516;2024-01-30T08:26:00;15.95;;;13.30;;
60722;SDS011;46574;52.818;6.516;2024-01-30T08:28:25;14.65;;;12.88;;
60722;SDS011;46574;52.818;6.516;2024-01-30T08:30:51;15.27;;;12.80;;
60722;SDS011;46574;52.818;6.516;2024-01-30T08:33:17;14.68;;;13.05;;
60722;SDS011;46574;52.818;6.516;2024-01-30T08:35:43;16.38;;;13.05;;
60722;SDS011;46574;52.818;6.516;2024-01-30T08:38:09;16.23;;;13.18;;
60722;SDS011;46574;52.818;6.516;2024-01-30T08:40:37;16.25;;;13.48;;
60722;SDS011;46574;52.818;6.516;2024-01-30T08:43:03;15.35;;;13.23;;
60722;SDS011;46574;52.818;6.516;2024-01-30T08:45:29;14.45;;;12.82;;
60722;SDS011;46574;52.818;6.516;2024-01-30T08:47:55;16.05;;;13.40;;
60722;SDS011;46574;52.818;6.516;2024-01-30T08:50:21;19.38;;;13.68;;
60722;SDS011;46574;52.818;6.516;2024-01-30T08:52:47;14.70;;;12.45;;
60722;SDS011;46574;52.818;6.516;2024-01-30T08:55:13;15.93;;;13.68;;
60722;SDS011;46574;52.818;6.516;2024-01-30T08:57:39;16.27;;;13.18;;
60722;SDS011;46574;52.818;6.516;2024-01-30T09:00:04;13.57;;;12.18;;
60722;SDS011;46574;52.818;6.516;2024-01-30T09:02:32;14.43;;;12.27;;
60722;SDS011;46574;52.818;6.516;2024-01-30T09:04:58;14.73;;;12.27;;
60722;SDS011;46574;52.818;6.516;2024-01-30T09:07:24;15.23;;;12.50;;
60722;SDS011;46574;52.818;6.516;2024-01-30T09:09:50;14.45;;;12.95;;
60722;SDS011;46574;52.818;6.516;2024-01-30T09:12:16;14.02;;;12.48;;
60722;SDS011;46574;52.818;6.516;2024-01-30T09:14:41;14.77;;;12.57;;
60722;SDS011;46574;52.818;6.516;2024-01-30T09:17:07;14.82;;;12.65;;
60722;SDS011;46574;52.818;6.516;2024-01-30T09:19:33;15.88;;;13.30;;
60722;SDS011;46574;52.818;6.516;2024-01-30T09:21:59;17.33;;;12.80;;
60722;SDS011;46574;52.818;6.516;2024-01-30T09:24:25;19.27;;;13.60;;
60722;SDS011;46574;52.818;6.516;2024-01-30T09:26:51;17.05;;;12.88;;
60722;SDS011;46574;52.818;6.516;2024-01-30T09:29:17;16.17;;;13.25;;
60722;SDS011;46574;52.818;6.516;2024-01-30T09:31:43;16.65;;;13.05;;
60722;SDS011;46574;52.818;6.516;2024-01-30T09:34:10;16.60;;;12.57;;
60722;SDS011;46574;52.818;6.516;2024-01-30T09:36:35;14.65;;;12.85;;
60722;SDS011;46574;52.818;6.516;2024-01-30T09:39:01;14.45;;;12.90;;
60722;SDS011;46574;52.818;6.516;2024-01-30T09:41:27;16.33;;;12.73;;
60722;SDS011;46574;52.818;6.516;2024-01-30T09:43:53;17.45;;;13.65;;
60722;SDS011;46574;52.818;6.516;2024-01-30T09:46:22;16.83;;;12.90;;
60722;SDS011;46574;52.818;6.516;2024-01-30T09:48:52;13.32;;;11.68;;
60722;SDS011;46574;52.818;6.516;2024-01-30T09:51:20;16.30;;;12.15;;
60722;SDS011;46574;52.818;6.516;2024-01-30T09:53:47;15.32;;;12.32;;
60722;SDS011;46574;52.818;6.516;2024-01-30T09:56:14;16.40;;;12.10;;
60722;SDS011;46574;52.818;6.516;2024-01-30T09:58:39;13.95;;;11.90;;
60722;SDS011;46574;52.818;6.516;2024-01-30T10:01:05;13.45;;;12.13;;
60722;SDS011;46574;52.818;6.516;2024-01-30T10:03:31;16.70;;;12.93;;
60722;SDS011;46574;52.818;6.516;2024-01-30T10:05:57;16.52;;;12.45;;
60722;SDS011;46574;52.818;6.516;2024-01-30T10:08:23;16.63;;;12.15;;
60722;SDS011;46574;52.818;6.516;2024-01-30T10:10:49;13.27;;;11.77;;
60722;SDS011;46574;52.818;6.516;2024-01-30T10:13:15;14.07;;;12.57;;
60722;SDS011;46574;52.818;6.516;2024-01-30T10:15:41;15.40;;;12.18;;
60722;SDS011;46574;52.818;6.516;2024-01-30T10:18:08;17.50;;;12.50;;
60722;SDS011;46574;52.818;6.516;2024-01-30T10:20:35;15.53;;;11.20;;
60722;SDS011;46574;52.818;6.516;2024-01-30T10:23:01;13.98;;;12.35;;
60722;SDS011;46574;52.818;6.516;2024-01-30T10:25:28;15.50;;;12.10;;
60722;SDS011;46574;52.818;6.516;2024-01-30T10:27:55;14.70;;;11.82;;
60722;SDS011;46574;52.818;6.516;2024-01-30T10:30:21;14.10;;;12.55;;
60722;SDS011;46574;52.818;6.516;2024-01-30T10:32:48;15.20;;;12.48;;
60722;SDS011;46574;52.818;6.516;2024-01-30T10:35:13;14.30;;;11.85;;
60722;SDS011;46574;52.818;6.516;2024-01-30T10:37:40;13.77;;;11.65;;
60722;SDS011;46574;52.818;6.516;2024-01-30T10:40:08;15.43;;;11.80;;
60722;SDS011;46574;52.818;6.516;2024-01-30T10:42:37;14.35;;;11.40;;
60722;SDS011;46574;52.818;6.516;2024-01-30T10:45:09;17.83;;;12.38;;
60722;SDS011;46574;52.818;6.516;2024-01-30T10:47:44;15.60;;;12.10;;
60722;SDS011;46574;52.818;6.516;2024-01-30T10:50:15;13.98;;;11.77;;
60722;SDS011;46574;52.818;6.516;2024-01-30T10:52:41;13.82;;;12.32;;
60722;SDS011;46574;52.818;6.516;2024-01-30T10:55:08;13.55;;;11.38;;
60722;SDS011;46574;52.818;6.516;2024-01-30T10:57:35;14.80;;;12.32;;
60722;SDS011;46574;52.818;6.516;2024-01-30T11:00:02;13.75;;;11.52;;
60722;SDS011;46574;52.818;6.516;2024-01-30T11:02:41;15.20;;;12.55;;
60722;SDS011;46574;52.818;6.516;2024-01-30T11:07:35;16.27;;;12.60;;
60722;SDS011;46574;52.818;6.516;2024-01-30T11:10:01;15.23;;;11.73;;
60722;SDS011;46574;52.818;6.516;2024-01-30T11:12:29;14.97;;;12.23;;
60722;SDS011;46574;52.818;6.516;2024-01-30T11:17:43;16.95;;;12.45;;
60722;SDS011;46574;52.818;6.516;2024-01-30T11:20:22;15.48;;;13.18;;
60722;SDS011;46574;52.818;6.516;2024-01-30T11:22:53;16.92;;;13.05;;
60722;SDS011;46574;52.818;6.516;2024-01-30T11:25:21;16.75;;;13.05;;
60722;SDS011;46574;52.818;6.516;2024-01-30T11:27:54;19.75;;;14.60;;
60722;SDS011;46574;52.818;6.516;2024-01-30T11:30:24;19.55;;;14.43;;
60722;SDS011;46574;52.818;6.516;2024-01-30T11:35:32;17.25;;;14.00;;
60722;SDS011;46574;52.818;6.516;2024-01-30T11:37:59;17.40;;;13.57;;
60722;SDS011;46574;52.818;6.516;2024-01-30T11:40:29;15.85;;;14.10;;
60722;SDS011;46574;52.818;6.516;2024-01-30T11:42:55;14.48;;;12.70;;
60722;SDS011;46574;52.818;6.516;2024-01-30T11:45:23;17.40;;;13.98;;
60722;SDS011;46574;52.818;6.516;2024-01-30T11:47:48;19.10;;;13.05;;
60722;SDS011;46574;52.818;6.516;2024-01-30T11:50:14;15.38;;;13.77;;
60722;SDS011;46574;52.818;6.516;2024-01-30T11:52:40;15.85;;;13.65;;
60722;SDS011;46574;52.818;6.516;2024-01-30T11:55:08;15.75;;;14.07;;
60722;SDS011;46574;52.818;6.516;2024-01-30T11:57:34;15.35;;;13.70;;
60722;SDS011;46574;52.818;6.516;2024-01-30T12:00:02;16.08;;;13.80;;
60722;SDS011;46574;52.818;6.516;2024-01-30T12:02:38;17.63;;;13.98;;
60722;SDS011;46574;52.818;6.516;2024-01-30T12:05:05;13.85;;;12.48;;
60722;SDS011;46574;52.818;6.516;2024-01-30T12:07:31;13.77;;;12.27;;
60722;SDS011;46574;52.818;6.516;2024-01-30T12:09:57;15.35;;;12.85;;
60722;SDS011;46574;52.818;6.516;2024-01-30T12:12:24;13.27;;;11.80;;
60722;SDS011;46574;52.818;6.516;2024-01-30T12:14:51;15.20;;;13.60;;
60722;SDS011;46574;52.818;6.516;2024-01-30T12:17:50;16.33;;;12.43;;
60722;SDS011;46574;52.818;6.516;2024-01-30T12:20:12;15.35;;;11.20;;
60722;SDS011;46574;52.818;6.516;2024-01-30T12:22:40;13.90;;;11.18;;
60722;SDS011;46574;52.818;6.516;2024-01-30T12:25:08;17.23;;;10.77;;
60722;SDS011;46574;52.818;6.516;2024-01-30T12:27:38;12.98;;;9.88;;
60722;SDS011;46574;52.818;6.516;2024-01-30T12:30:14;13.88;;;9.63;;
60722;SDS011;46574;52.818;6.516;2024-01-30T12:32:41;12.02;;;8.38;;
60722;SDS011;46574;52.818;6.516;2024-01-30T12:35:11;11.18;;;7.80;;
60722;SDS011;46574;52.818;6.516;2024-01-30T12:37:38;12.30;;;7.57;;
60722;SDS011;46574;52.818;6.516;2024-01-30T12:40:05;10.48;;;6.63;;
60722;SDS011;46574;52.818;6.516;2024-01-30T12:42:34;10.98;;;6.63;;
60722;SDS011;46574;52.818;6.516;2024-01-30T12:47:29;7.88;;;5.43;;
60722;SDS011;46574;52.818;6.516;2024-01-30T12:49:55;7.05;;;5.10;;
60722;SDS011;46574;52.818;6.516;2024-01-30T12:52:21;6.07;;;4.53;;
60722;SDS011;46574;52.818;6.516;2024-01-30T12:54:47;5.40;;;3.70;;
60722;SDS011;46574;52.818;6.516;2024-01-30T12:57:14;5.75;;;4.15;;
60722;SDS011;46574;52.818;6.516;2024-01-30T12:59:39;4.40;;;3.55;;
60722;SDS011;46574;52.818;6.516;2024-01-30T13:02:05;5.38;;;3.53;;
60722;SDS011;46574;52.818;6.516;2024-01-30T13:04:32;5.90;;;3.70;;
60722;SDS011;46574;52.818;6.516;2024-01-30T13:06:58;6.03;;;4.15;;
60722;SDS011;46574;52.818;6.516;2024-01-30T13:09:25;8.73;;;4.38;;
60722;SDS011;46574;52.818;6.516;2024-01-30T13:11:51;4.30;;;3.90;;
60722;SDS011;46574;52.818;6.516;2024-01-30T13:14:17;7.20;;;4.50;;
60722;SDS011;46574;52.818;6.516;2024-01-30T13:16:43;6.95;;;4.95;;
60722;SDS011;46574;52.818;6.516;2024-01-30T13:19:08;6.70;;;4.10;;
60722;SDS011;46574;52.818;6.516;2024-01-30T13:21:34;5.68;;;4.22;;
60722;SDS011;46574;52.818;6.516;2024-01-30T13:24:00;5.43;;;3.95;;
60722;SDS011;46574;52.818;6.516;2024-01-30T13:26:25;5.70;;;4.15;;
60722;SDS011;46574;52.818;6.516;2024-01-30T13:28:51;5.13;;;3.67;;
60722;SDS011;46574;52.818;6.516;2024-01-30T13:31:17;3.42;;;3.03;;
60722;SDS011;46574;52.818;6.516;2024-01-30T13:33:44;4.13;;;2.83;;
60722;SDS011;46574;52.818;6.516;2024-01-30T13:36:10;5.40;;;3.05;;
60722;SDS011;46574;52.818;6.516;2024-01-30T13:38:36;5.80;;;2.60;;
60722;SDS011;46574;52.818;6.516;2024-01-30T13:41:03;3.65;;;2.80;;
60722;SDS011;46574;52.818;6.516;2024-01-30T13:43:28;3.95;;;3.00;;
60722;SDS011;46574;52.818;6.516;2024-01-30T13:45:54;5.05;;;2.97;;
60722;SDS011;46574;52.818;6.516;2024-01-30T13:48:20;3.95;;;2.90;;
60722;SDS011;46574;52.818;6.516;2024-01-30T13:50:46;4.50;;;3.33;;
60722;SDS011;46574;52.818;6.516;2024-01-30T13:53:12;3.80;;;3.10;;
60722;SDS011;46574;52.818;6.516;2024-01-30T13:55:38;4.90;;;3.28;;
60722;SDS011;46574;52.818;6.516;2024-01-30T13:58:04;4.22;;;2.90;;
60722;SDS011;46574;52.818;6.516;2024-01-30T14:00:30;6.07;;;3.33;;
60722;SDS011;46574;52.818;6.516;2024-01-30T14:02:56;4.40;;;3.13;;
60722;SDS011;46574;52.818;6.516;2024-01-30T14:05:23;3.72;;;3.05;;
60722;SDS011;46574;52.818;6.516;2024-01-30T14:07:50;3.80;;;3.50;;
60722;SDS011;46574;52.818;6.516;2024-01-30T14:10:16;6.50;;;3.58;;
60722;SDS011;46574;52.818;6.516;2024-01-30T14:12:42;4.25;;;3.20;;
60722;SDS011;46574;52.818;6.516;2024-01-30T14:15:09;5.13;;;3.10;;
60722;SDS011;46574;52.818;6.516;2024-01-30T14:17:36;3.97;;;2.90;;
60722;SDS011;46574;52.818;6.516;2024-01-30T14:20:05;3.63;;;2.88;;
60722;SDS011;46574;52.818;6.516;2024-01-30T14:22:33;3.50;;;2.47;;
60722;SDS011;46574;52.818;6.516;2024-01-30T14:24:59;4.05;;;2.55;;
60722;SDS011;46574;52.818;6.516;2024-01-30T14:27:25;3.72;;;2.60;;
60722;SDS011;46574;52.818;6.516;2024-01-30T14:29:51;3.30;;;2.10;;
60722;SDS011;46574;52.818;6.516;2024-01-30T14:32:16;3.83;;;2.30;;